sensor_id;sensor_type;location;lat;lon;timestamp;P1;durP1;ratioP1;P2;durP2;ratioP2
60241;SDS011;46103;52.076;113.488;2023-11-18T00:01:16;47.80;;;21.92;;
60241;SDS011;46103;52.076;113.488;2023-11-18T00:04:26;43.55;;;21.95;;
60241;SDS011;46103;52.076;113.488;2023-11-18T00:07:38;81.78;;;36.30;;
60241;SDS011;46103;52.076;113.488;2023-11-18T00:10:48;69.20;;;31.70;;
60241;SDS011;46103;52.076;113.488;2023-11-18T00:13:58;40.47;;;18.15;;
60241;SDS011;46103;52.076;113.488;2023-11-18T00:17:09;27.50;;;13.07;;
60241;SDS011;46103;52.076;113.488;2023-11-18T00:20:21;35.33;;;17.40;;
60241;SDS011;46103;52.076;113.488;2023-11-18T00:23:31;80.63;;;35.85;;
60241;SDS011;46103;52.076;113.488;2023-11-18T00:26:49;99.72;;;43.30;;
60241;SDS011;46103;52.076;113.488;2023-11-18T00:30:03;36.17;;;16.00;;
60241;SDS011;46103;52.076;113.488;2023-11-18T00:33:22;32.55;;;16.73;;
60241;SDS011;46103;52.076;113.488;2023-11-18T00:36:27;18.00;;;7.10;;
60241;SDS011;46103;52.076;113.488;2023-11-18T00:39:32;65.32;;;26.35;;
60241;SDS011;46103;52.076;113.488;2023-11-18T00:42:43;38.17;;;16.23;;
60241;SDS011;46103;52.076;113.488;2023-11-18T00:45:49;35.20;;;17.15;;
60241;SDS011;46103;52.076;113.488;2023-11-18T00:49:08;26.90;;;11.68;;
60241;SDS011;46103;52.076;113.488;2023-11-18T00:52:37;21.92;;;9.80;;
60241;SDS011;46103;52.076;113.488;2023-11-18T00:55:50;34.83;;;16.05;;
60241;SDS011;46103;52.076;113.488;2023-11-18T00:59:05;41.80;;;18.63;;
60241;SDS011;46103;52.076;113.488;2023-11-18T01:02:16;39.15;;;17.10;;
60241;SDS011;46103;52.076;113.488;2023-11-18T01:05:57;32.33;;;16.00;;
60241;SDS011;46103;52.076;113.488;2023-11-18T01:09:00;17.35;;;7.35;;
60241;SDS011;46103;52.076;113.488;2023-11-18T01:12:05;58.78;;;26.20;;
60241;SDS011;46103;52.076;113.488;2023-11-18T01:15:22;70.05;;;29.15;;
60241;SDS011;46103;52.076;113.488;2023-11-18T01:18:29;69.22;;;32.75;;
60241;SDS011;46103;52.076;113.488;2023-11-18T01:21:35;65.68;;;30.25;;
60241;SDS011;46103;52.076;113.488;2023-11-18T01:24:52;74.72;;;35.35;;
60241;SDS011;46103;52.076;113.488;2023-11-18T01:28:10;48.47;;;22.90;;
60241;SDS011;46103;52.076;113.488;2023-11-18T01:31:13;85.97;;;39.97;;
60241;SDS011;46103;52.076;113.488;2023-11-18T01:34:20;88.25;;;39.45;;
60241;SDS011;46103;52.076;113.488;2023-11-18T01:37:35;38.50;;;16.52;;
60241;SDS011;46103;52.076;113.488;2023-11-18T01:40:54;84.28;;;39.22;;
60241;SDS011;46103;52.076;113.488;2023-11-18T01:43:58;66.80;;;32.00;;
60241;SDS011;46103;52.076;113.488;2023-11-18T01:47:03;124.20;;;56.97;;
60241;SDS011;46103;52.076;113.488;2023-11-18T01:50:11;68.95;;;32.17;;
60241;SDS011;46103;52.076;113.488;2023-11-18T01:53:17;37.55;;;18.00;;
60241;SDS011;46103;52.076;113.488;2023-11-18T01:56:22;169.85;;;82.43;;
60241;SDS011;46103;52.076;113.488;2023-11-18T01:59:28;138.63;;;69.78;;
60241;SDS011;46103;52.076;113.488;2023-11-18T02:02:33;150.73;;;67.78;;
60241;SDS011;46103;52.076;113.488;2023-11-18T02:05:40;132.20;;;62.45;;
60241;SDS011;46103;52.076;113.488;2023-11-18T02:08:45;188.27;;;91.88;;
60241;SDS011;46103;52.076;113.488;2023-11-18T02:12:38;95.75;;;46.45;;
60241;SDS011;46103;52.076;113.488;2023-11-18T02:15:32;217.35;;;101.00;;
60241;SDS011;46103;52.076;113.488;2023-11-18T02:18:38;83.05;;;40.97;;
60241;SDS011;46103;52.076;113.488;2023-11-18T02:21:45;173.20;;;82.10;;
60241;SDS011;46103;52.076;113.488;2023-11-18T02:24:50;73.95;;;35.60;;
60241;SDS011;46103;52.076;113.488;2023-11-18T02:28:34;180.05;;;94.57;;
60241;SDS011;46103;52.076;113.488;2023-11-18T02:31:53;186.93;;;92.10;;
60241;SDS011;46103;52.076;113.488;2023-11-18T02:38:30;170.13;;;80.05;;
60241;SDS011;46103;52.076;113.488;2023-11-18T02:41:51;186.73;;;88.38;;
60241;SDS011;46103;52.076;113.488;2023-11-18T02:44:56;111.68;;;53.17;;
60241;SDS011;46103;52.076;113.488;2023-11-18T02:48:06;197.65;;;97.32;;
60241;SDS011;46103;52.076;113.488;2023-11-18T02:51:11;168.60;;;80.78;;
60241;SDS011;46103;52.076;113.488;2023-11-18T02:54:23;158.10;;;72.75;;
60241;SDS011;46103;52.076;113.488;2023-11-18T02:57:44;192.90;;;93.00;;
60241;SDS011;46103;52.076;113.488;2023-11-18T03:00:47;159.85;;;77.57;;
60241;SDS011;46103;52.076;113.488;2023-11-18T03:03:51;152.18;;;72.45;;
60241;SDS011;46103;52.076;113.488;2023-11-18T03:06:57;138.73;;;64.53;;
60241;SDS011;46103;52.076;113.488;2023-11-18T03:10:08;49.67;;;22.60;;
60241;SDS011;46103;52.076;113.488;2023-11-18T03:16:24;79.47;;;37.45;;
60241;SDS011;46103;52.076;113.488;2023-11-18T03:19:36;131.18;;;63.63;;
60241;SDS011;46103;52.076;113.488;2023-11-18T03:22:46;138.45;;;64.90;;
60241;SDS011;46103;52.076;113.488;2023-11-18T03:25:56;136.55;;;65.13;;
60241;SDS011;46103;52.076;113.488;2023-11-18T03:29:06;115.93;;;59.55;;
60241;SDS011;46103;52.076;113.488;2023-11-18T03:32:22;73.35;;;37.72;;
60241;SDS011;46103;52.076;113.488;2023-11-18T03:35:32;132.52;;;61.25;;
60241;SDS011;46103;52.076;113.488;2023-11-18T03:38:45;128.85;;;62.92;;
60241;SDS011;46103;52.076;113.488;2023-11-18T03:41:59;128.77;;;64.70;;
60241;SDS011;46103;52.076;113.488;2023-11-18T03:45:09;129.75;;;63.05;;
60241;SDS011;46103;52.076;113.488;2023-11-18T03:48:19;126.35;;;64.40;;
60241;SDS011;46103;52.076;113.488;2023-11-18T03:51:33;124.50;;;68.53;;
60241;SDS011;46103;52.076;113.488;2023-11-18T03:54:43;122.50;;;63.42;;
60241;SDS011;46103;52.076;113.488;2023-11-18T03:58:00;123.18;;;61.75;;
60241;SDS011;46103;52.076;113.488;2023-11-18T04:01:09;102.68;;;51.22;;
60241;SDS011;46103;52.076;113.488;2023-11-18T04:07:52;123.75;;;61.72;;
60241;SDS011;46103;52.076;113.488;2023-11-18T04:14:02;104.80;;;52.83;;
60241;SDS011;46103;52.076;113.488;2023-11-18T04:17:20;95.13;;;49.05;;
60241;SDS011;46103;52.076;113.488;2023-11-18T04:20:24;71.50;;;37.53;;
60241;SDS011;46103;52.076;113.488;2023-11-18T04:23:28;53.92;;;28.85;;
60241;SDS011;46103;52.076;113.488;2023-11-18T04:26:37;100.32;;;52.67;;
60241;SDS011;46103;52.076;113.488;2023-11-18T04:29:40;123.70;;;61.35;;
60241;SDS011;46103;52.076;113.488;2023-11-18T04:32:44;57.38;;;31.27;;
60241;SDS011;46103;52.076;113.488;2023-11-18T04:35:47;56.55;;;32.25;;
60241;SDS011;46103;52.076;113.488;2023-11-18T04:38:51;50.03;;;25.30;;
60241;SDS011;46103;52.076;113.488;2023-11-18T04:41:55;18.00;;;9.40;;
60241;SDS011;46103;52.076;113.488;2023-11-18T04:45:00;14.98;;;7.82;;
60241;SDS011;46103;52.076;113.488;2023-11-18T04:48:04;22.23;;;10.82;;
60241;SDS011;46103;52.076;113.488;2023-11-18T04:51:09;24.70;;;12.20;;
60241;SDS011;46103;52.076;113.488;2023-11-18T04:54:14;20.58;;;9.95;;
60241;SDS011;46103;52.076;113.488;2023-11-18T04:57:18;28.90;;;15.35;;
60241;SDS011;46103;52.076;113.488;2023-11-18T05:00:23;57.75;;;31.35;;
60241;SDS011;46103;52.076;113.488;2023-11-18T05:03:27;82.22;;;43.88;;
60241;SDS011;46103;52.076;113.488;2023-11-18T05:06:31;82.45;;;43.00;;
60241;SDS011;46103;52.076;113.488;2023-11-18T05:14:22;88.63;;;47.67;;
60241;SDS011;46103;52.076;113.488;2023-11-18T05:47:57;75.90;;;41.05;;
60241;SDS011;46103;52.076;113.488;2023-11-18T05:59:41;89.30;;;45.88;;
60241;SDS011;46103;52.076;113.488;2023-11-18T06:08:59;83.70;;;46.45;;
60241;SDS011;46103;52.076;113.488;2023-11-18T06:25:50;71.75;;;38.72;;
60241;SDS011;46103;52.076;113.488;2023-11-18T06:37:53;82.35;;;44.25;;
60241;SDS011;46103;52.076;113.488;2023-11-18T06:45:33;52.67;;;28.05;;
60241;SDS011;46103;52.076;113.488;2023-11-18T06:56:50;34.63;;;20.83;;
60241;SDS011;46103;52.076;113.488;2023-11-18T07:03:47;32.83;;;17.15;;
60241;SDS011;46103;52.076;113.488;2023-11-18T07:07:39;39.90;;;20.63;;
60241;SDS011;46103;52.076;113.488;2023-11-18T08:02:22;16.77;;;7.55;;
60241;SDS011;46103;52.076;113.488;2023-11-18T08:06:07;10.75;;;5.78;;
60241;SDS011;46103;52.076;113.488;2023-11-18T08:10:13;12.32;;;6.55;;
60241;SDS011;46103;52.076;113.488;2023-11-18T08:14:08;10.95;;;5.30;;
60241;SDS011;46103;52.076;113.488;2023-11-18T08:26:32;9.77;;;4.72;;
60241;SDS011;46103;52.076;113.488;2023-11-18T08:30:55;7.90;;;4.40;;
60241;SDS011;46103;52.076;113.488;2023-11-18T08:34:26;17.40;;;7.95;;
60241;SDS011;46103;52.076;113.488;2023-11-18T08:37:38;16.40;;;7.97;;
60241;SDS011;46103;52.076;113.488;2023-11-18T08:41:36;11.38;;;6.38;;
60241;SDS011;46103;52.076;113.488;2023-11-18T08:44:58;11.55;;;5.40;;
60241;SDS011;46103;52.076;113.488;2023-11-18T08:49:08;15.52;;;7.30;;
60241;SDS011;46103;52.076;113.488;2023-11-18T08:57:50;18.48;;;8.65;;
60241;SDS011;46103;52.076;113.488;2023-11-18T09:01:27;26.02;;;12.70;;
60241;SDS011;46103;52.076;113.488;2023-11-18T09:05:22;8.63;;;4.90;;
60241;SDS011;46103;52.076;113.488;2023-11-18T09:08:43;11.88;;;5.80;;
60241;SDS011;46103;52.076;113.488;2023-11-18T09:12:36;14.63;;;6.93;;
60241;SDS011;46103;52.076;113.488;2023-11-18T09:17:16;15.38;;;7.43;;
60241;SDS011;46103;52.076;113.488;2023-11-18T09:21:01;13.57;;;6.30;;
60241;SDS011;46103;52.076;113.488;2023-11-18T09:24:58;10.07;;;3.97;;
60241;SDS011;46103;52.076;113.488;2023-11-18T09:32:23;7.57;;;3.72;;
60241;SDS011;46103;52.076;113.488;2023-11-18T09:35:45;6.05;;;3.50;;
60241;SDS011;46103;52.076;113.488;2023-11-18T09:38:49;8.35;;;4.03;;
60241;SDS011;46103;52.076;113.488;2023-11-18T09:41:56;4.80;;;1.95;;
60241;SDS011;46103;52.076;113.488;2023-11-18T09:44:59;11.13;;;4.90;;
60241;SDS011;46103;52.076;113.488;2023-11-18T09:51:14;10.25;;;5.13;;
60241;SDS011;46103;52.076;113.488;2023-11-18T09:54:31;17.65;;;7.25;;
60241;SDS011;46103;52.076;113.488;2023-11-18T09:57:44;7.05;;;2.78;;
60241;SDS011;46103;52.076;113.488;2023-11-18T10:01:00;14.90;;;6.70;;
60241;SDS011;46103;52.076;113.488;2023-11-18T10:04:06;23.33;;;10.40;;
60241;SDS011;46103;52.076;113.488;2023-11-18T10:07:10;9.57;;;4.60;;
60241;SDS011;46103;52.076;113.488;2023-11-18T10:10:15;12.35;;;5.68;;
60241;SDS011;46103;52.076;113.488;2023-11-18T10:13:19;11.38;;;5.82;;
60241;SDS011;46103;52.076;113.488;2023-11-18T10:16:27;12.77;;;5.45;;
60241;SDS011;46103;52.076;113.488;2023-11-18T10:23:08;13.77;;;4.82;;
60241;SDS011;46103;52.076;113.488;2023-11-18T10:26:16;9.45;;;4.53;;
60241;SDS011;46103;52.076;113.488;2023-11-18T10:29:20;10.15;;;4.88;;
60241;SDS011;46103;52.076;113.488;2023-11-18T10:32:24;15.43;;;7.97;;
60241;SDS011;46103;52.076;113.488;2023-11-18T10:38:40;23.73;;;10.70;;
60241;SDS011;46103;52.076;113.488;2023-11-18T10:41:52;26.98;;;12.43;;
60241;SDS011;46103;52.076;113.488;2023-11-18T10:45:02;21.80;;;9.88;;
60241;SDS011;46103;52.076;113.488;2023-11-18T10:48:07;17.15;;;7.63;;
60241;SDS011;46103;52.076;113.488;2023-11-18T10:51:12;19.33;;;8.57;;
60241;SDS011;46103;52.076;113.488;2023-11-18T10:54:28;15.52;;;7.90;;
60241;SDS011;46103;52.076;113.488;2023-11-18T10:57:32;16.67;;;8.30;;
60241;SDS011;46103;52.076;113.488;2023-11-18T11:00:51;17.38;;;8.63;;
60241;SDS011;46103;52.076;113.488;2023-11-18T11:04:03;16.48;;;6.78;;
60241;SDS011;46103;52.076;113.488;2023-11-18T11:07:08;14.63;;;6.38;;
60241;SDS011;46103;52.076;113.488;2023-11-18T11:10:14;13.38;;;6.80;;
60241;SDS011;46103;52.076;113.488;2023-11-18T11:13:21;14.57;;;7.35;;
60241;SDS011;46103;52.076;113.488;2023-11-18T11:16:41;18.08;;;7.93;;
60241;SDS011;46103;52.076;113.488;2023-11-18T11:20:07;14.73;;;6.55;;
60241;SDS011;46103;52.076;113.488;2023-11-18T11:27:02;12.10;;;5.97;;
60241;SDS011;46103;52.076;113.488;2023-11-18T11:30:25;10.63;;;4.65;;
60241;SDS011;46103;52.076;113.488;2023-11-18T11:34:02;14.55;;;6.10;;
60241;SDS011;46103;52.076;113.488;2023-11-18T11:37:14;7.60;;;3.65;;
60241;SDS011;46103;52.076;113.488;2023-11-18T11:40:19;10.82;;;5.20;;
60241;SDS011;46103;52.076;113.488;2023-11-18T11:43:26;9.40;;;3.60;;
60241;SDS011;46103;52.076;113.488;2023-11-18T11:46:31;11.90;;;4.38;;
60241;SDS011;46103;52.076;113.488;2023-11-18T11:49:41;5.97;;;2.15;;
60241;SDS011;46103;52.076;113.488;2023-11-18T11:53:07;11.15;;;3.70;;
60241;SDS011;46103;52.076;113.488;2023-11-18T11:56:19;5.38;;;2.47;;
60241;SDS011;46103;52.076;113.488;2023-11-18T12:02:50;3.63;;;1.70;;
60241;SDS011;46103;52.076;113.488;2023-11-18T12:06:00;4.30;;;1.83;;
60241;SDS011;46103;52.076;113.488;2023-11-18T12:09:14;4.07;;;1.83;;
60241;SDS011;46103;52.076;113.488;2023-11-18T12:12:23;4.40;;;1.90;;
60241;SDS011;46103;52.076;113.488;2023-11-18T12:15:50;5.70;;;3.05;;
60241;SDS011;46103;52.076;113.488;2023-11-18T12:19:36;5.20;;;2.60;;
60241;SDS011;46103;52.076;113.488;2023-11-18T12:23:07;4.90;;;2.45;;
60241;SDS011;46103;52.076;113.488;2023-11-18T12:29:42;5.10;;;2.00;;
60241;SDS011;46103;52.076;113.488;2023-11-18T12:50:17;2.28;;;0.88;;
60241;SDS011;46103;52.076;113.488;2023-11-18T12:53:29;2.78;;;1.00;;
60241;SDS011;46103;52.076;113.488;2023-11-18T12:56:33;5.32;;;1.80;;
60241;SDS011;46103;52.076;113.488;2023-11-18T12:59:39;3.53;;;1.25;;
60241;SDS011;46103;52.076;113.488;2023-11-18T13:02:56;2.78;;;1.58;;
60241;SDS011;46103;52.076;113.488;2023-11-18T13:06:19;6.70;;;2.15;;
60241;SDS011;46103;52.076;113.488;2023-11-18T13:09:30;5.18;;;1.92;;
60241;SDS011;46103;52.076;113.488;2023-11-18T13:12:39;4.93;;;2.08;;
60241;SDS011;46103;52.076;113.488;2023-11-18T13:15:48;6.93;;;2.72;;
60241;SDS011;46103;52.076;113.488;2023-11-18T13:18:57;16.00;;;6.72;;
60241;SDS011;46103;52.076;113.488;2023-11-18T13:22:03;15.50;;;7.57;;
60241;SDS011;46103;52.076;113.488;2023-11-18T13:25:27;19.77;;;8.63;;
60241;SDS011;46103;52.076;113.488;2023-11-18T13:28:39;15.85;;;7.97;;
60241;SDS011;46103;52.076;113.488;2023-11-18T13:31:44;19.92;;;9.32;;
60241;SDS011;46103;52.076;113.488;2023-11-18T13:38:54;19.77;;;9.88;;
60241;SDS011;46103;52.076;113.488;2023-11-18T13:42:38;19.88;;;8.73;;
60241;SDS011;46103;52.076;113.488;2023-11-18T13:46:17;15.13;;;7.68;;
60241;SDS011;46103;52.076;113.488;2023-11-18T13:49:33;12.85;;;6.28;;
60241;SDS011;46103;52.076;113.488;2023-11-18T13:53:00;15.60;;;6.05;;
60241;SDS011;46103;52.076;113.488;2023-11-18T13:57:06;12.15;;;5.28;;
60241;SDS011;46103;52.076;113.488;2023-11-18T14:00:35;11.93;;;4.80;;
60241;SDS011;46103;52.076;113.488;2023-11-18T14:03:44;10.55;;;4.68;;
60241;SDS011;46103;52.076;113.488;2023-11-18T14:10:32;11.73;;;4.32;;
60241;SDS011;46103;52.076;113.488;2023-11-18T14:13:53;10.27;;;4.43;;
60241;SDS011;46103;52.076;113.488;2023-11-18T14:17:07;10.15;;;4.43;;
60241;SDS011;46103;52.076;113.488;2023-11-18T14:25:34;13.02;;;5.25;;
60241;SDS011;46103;52.076;113.488;2023-11-18T14:29:11;12.40;;;4.53;;
60241;SDS011;46103;52.076;113.488;2023-11-18T14:33:03;14.88;;;5.82;;
60241;SDS011;46103;52.076;113.488;2023-11-18T14:36:10;15.93;;;5.93;;
60241;SDS011;46103;52.076;113.488;2023-11-18T14:39:14;12.02;;;5.18;;
60241;SDS011;46103;52.076;113.488;2023-11-18T14:42:35;14.90;;;7.25;;
60241;SDS011;46103;52.076;113.488;2023-11-18T14:45:40;13.55;;;5.05;;
60241;SDS011;46103;52.076;113.488;2023-11-18T14:48:46;9.63;;;4.40;;
60241;SDS011;46103;52.076;113.488;2023-11-18T14:51:49;10.65;;;4.95;;
60241;SDS011;46103;52.076;113.488;2023-11-18T14:55:01;13.52;;;6.68;;
60241;SDS011;46103;52.076;113.488;2023-11-18T14:58:07;12.88;;;5.95;;
60241;SDS011;46103;52.076;113.488;2023-11-18T15:01:19;14.52;;;6.25;;
60241;SDS011;46103;52.076;113.488;2023-11-18T15:04:25;14.25;;;6.38;;
60241;SDS011;46103;52.076;113.488;2023-11-18T15:07:30;9.20;;;4.13;;
60241;SDS011;46103;52.076;113.488;2023-11-18T15:10:34;16.92;;;7.28;;
60241;SDS011;46103;52.076;113.488;2023-11-18T15:13:40;12.27;;;5.75;;
60241;SDS011;46103;52.076;113.488;2023-11-18T15:19:57;2.03;;;0.68;;
60241;SDS011;46103;52.076;113.488;2023-11-18T15:23:11;2.40;;;1.00;;
60241;SDS011;46103;52.076;113.488;2023-11-18T15:26:22;6.43;;;2.80;;
60241;SDS011;46103;52.076;113.488;2023-11-18T15:29:40;6.07;;;2.75;;
60241;SDS011;46103;52.076;113.488;2023-11-18T15:32:55;6.95;;;2.55;;
60241;SDS011;46103;52.076;113.488;2023-11-18T15:36:05;12.35;;;5.95;;
60241;SDS011;46103;52.076;113.488;2023-11-18T15:39:14;14.70;;;6.90;;
60241;SDS011;46103;52.076;113.488;2023-11-18T15:42:24;12.45;;;6.10;;
60241;SDS011;46103;52.076;113.488;2023-11-18T15:45:34;13.18;;;5.97;;
60241;SDS011;46103;52.076;113.488;2023-11-18T15:48:44;11.48;;;5.10;;
60241;SDS011;46103;52.076;113.488;2023-11-18T15:51:53;9.65;;;4.07;;
60241;SDS011;46103;52.076;113.488;2023-11-18T15:55:02;10.82;;;4.70;;
60241;SDS011;46103;52.076;113.488;2023-11-18T15:58:15;12.45;;;3.97;;
60241;SDS011;46103;52.076;113.488;2023-11-18T16:01:25;10.10;;;4.90;;
60241;SDS011;46103;52.076;113.488;2023-11-18T16:04:33;14.88;;;5.38;;
60241;SDS011;46103;52.076;113.488;2023-11-18T16:07:43;13.85;;;4.85;;
60241;SDS011;46103;52.076;113.488;2023-11-18T16:10:51;13.43;;;5.45;;
60241;SDS011;46103;52.076;113.488;2023-11-18T16:14:01;14.57;;;5.35;;
60241;SDS011;46103;52.076;113.488;2023-11-18T16:17:10;10.57;;;4.60;;
60241;SDS011;46103;52.076;113.488;2023-11-18T16:20:21;8.65;;;3.65;;
60241;SDS011;46103;52.076;113.488;2023-11-18T16:23:30;13.93;;;5.13;;
60241;SDS011;46103;52.076;113.488;2023-11-18T16:26:41;13.75;;;5.10;;
60241;SDS011;46103;52.076;113.488;2023-11-18T16:29:51;12.82;;;4.47;;
60241;SDS011;46103;52.076;113.488;2023-11-18T16:33:01;11.68;;;4.43;;
60241;SDS011;46103;52.076;113.488;2023-11-18T16:36:10;15.25;;;5.63;;
60241;SDS011;46103;52.076;113.488;2023-11-18T16:39:33;14.07;;;4.20;;
60241;SDS011;46103;52.076;113.488;2023-11-18T16:42:42;10.07;;;4.07;;
60241;SDS011;46103;52.076;113.488;2023-11-18T16:45:51;11.48;;;4.85;;
60241;SDS011;46103;52.076;113.488;2023-11-18T16:49:00;9.93;;;5.30;;
60241;SDS011;46103;52.076;113.488;2023-11-18T16:52:11;9.90;;;3.20;;
60241;SDS011;46103;52.076;113.488;2023-11-18T16:55:23;7.05;;;3.47;;
60241;SDS011;46103;52.076;113.488;2023-11-18T16:58:37;8.32;;;3.75;;
60241;SDS011;46103;52.076;113.488;2023-11-18T17:01:47;13.27;;;4.00;;
60241;SDS011;46103;52.076;113.488;2023-11-18T17:04:58;7.63;;;3.80;;
60241;SDS011;46103;52.076;113.488;2023-11-18T17:08:08;6.00;;;2.50;;
60241;SDS011;46103;52.076;113.488;2023-11-18T17:11:17;10.75;;;4.43;;
60241;SDS011;46103;52.076;113.488;2023-11-18T17:14:26;8.77;;;4.25;;
60241;SDS011;46103;52.076;113.488;2023-11-18T17:17:36;8.60;;;3.30;;
60241;SDS011;46103;52.076;113.488;2023-11-18T17:20:45;10.50;;;4.63;;
60241;SDS011;46103;52.076;113.488;2023-11-18T17:23:56;6.38;;;2.83;;
60241;SDS011;46103;52.076;113.488;2023-11-18T17:27:07;11.93;;;4.47;;
60241;SDS011;46103;52.076;113.488;2023-11-18T17:30:21;11.32;;;4.80;;
60241;SDS011;46103;52.076;113.488;2023-11-18T17:33:30;5.63;;;1.75;;
60241;SDS011;46103;52.076;113.488;2023-11-18T17:36:41;6.82;;;2.78;;
60241;SDS011;46103;52.076;113.488;2023-11-18T17:39:54;8.82;;;4.43;;
60241;SDS011;46103;52.076;113.488;2023-11-18T17:43:03;7.47;;;3.60;;
60241;SDS011;46103;52.076;113.488;2023-11-18T17:46:12;6.45;;;3.13;;
60241;SDS011;46103;52.076;113.488;2023-11-18T17:49:22;5.28;;;2.03;;
60241;SDS011;46103;52.076;113.488;2023-11-18T17:52:33;4.60;;;2.30;;
60241;SDS011;46103;52.076;113.488;2023-11-18T17:55:42;3.85;;;1.38;;
60241;SDS011;46103;52.076;113.488;2023-11-18T17:58:52;3.80;;;1.40;;
60241;SDS011;46103;52.076;113.488;2023-11-18T18:02:04;4.93;;;2.13;;
60241;SDS011;46103;52.076;113.488;2023-11-18T18:05:15;5.90;;;2.72;;
60241;SDS011;46103;52.076;113.488;2023-11-18T18:08:25;4.68;;;1.63;;
60241;SDS011;46103;52.076;113.488;2023-11-18T18:11:37;7.65;;;3.05;;
60241;SDS011;46103;52.076;113.488;2023-11-18T18:14:48;5.90;;;2.13;;
60241;SDS011;46103;52.076;113.488;2023-11-18T18:17:58;3.90;;;1.67;;
60241;SDS011;46103;52.076;113.488;2023-11-18T18:21:09;6.72;;;1.38;;
60241;SDS011;46103;52.076;113.488;2023-11-18T18:24:19;7.90;;;2.88;;
60241;SDS011;46103;52.076;113.488;2023-11-18T18:27:29;9.50;;;3.20;;
60241;SDS011;46103;52.076;113.488;2023-11-18T18:30:40;2.75;;;1.27;;
60241;SDS011;46103;52.076;113.488;2023-11-18T18:33:49;3.83;;;1.90;;
60241;SDS011;46103;52.076;113.488;2023-11-18T18:36:58;8.20;;;3.95;;
60241;SDS011;46103;52.076;113.488;2023-11-18T18:40:06;6.95;;;3.60;;
60241;SDS011;46103;52.076;113.488;2023-11-18T18:43:18;9.90;;;4.75;;
60241;SDS011;46103;52.076;113.488;2023-11-18T18:46:26;10.27;;;4.80;;
60241;SDS011;46103;52.076;113.488;2023-11-18T18:49:36;9.40;;;4.75;;
60241;SDS011;46103;52.076;113.488;2023-11-18T18:52:44;7.72;;;4.05;;
60241;SDS011;46103;52.076;113.488;2023-11-18T18:55:52;9.50;;;4.00;;
60241;SDS011;46103;52.076;113.488;2023-11-18T18:59:01;10.25;;;3.55;;
60241;SDS011;46103;52.076;113.488;2023-11-18T19:02:16;8.60;;;4.25;;
60241;SDS011;46103;52.076;113.488;2023-11-18T19:05:25;9.52;;;3.22;;
60241;SDS011;46103;52.076;113.488;2023-11-18T19:08:35;4.88;;;2.35;;
60241;SDS011;46103;52.076;113.488;2023-11-18T19:11:44;6.35;;;2.08;;
60241;SDS011;46103;52.076;113.488;2023-11-18T19:14:53;5.10;;;2.47;;
60241;SDS011;46103;52.076;113.488;2023-11-18T19:18:02;7.18;;;2.80;;
60241;SDS011;46103;52.076;113.488;2023-11-18T19:21:12;5.68;;;2.63;;
60241;SDS011;46103;52.076;113.488;2023-11-18T19:24:21;7.18;;;3.05;;
60241;SDS011;46103;52.076;113.488;2023-11-18T19:27:31;6.57;;;2.50;;
60241;SDS011;46103;52.076;113.488;2023-11-18T19:30:47;7.63;;;3.42;;
60241;SDS011;46103;52.076;113.488;2023-11-18T19:33:56;7.00;;;2.75;;
60241;SDS011;46103;52.076;113.488;2023-11-18T19:37:06;8.15;;;3.58;;
60241;SDS011;46103;52.076;113.488;2023-11-18T19:40:16;7.10;;;3.78;;
60241;SDS011;46103;52.076;113.488;2023-11-18T19:43:27;9.52;;;4.10;;
60241;SDS011;46103;52.076;113.488;2023-11-18T19:46:37;7.82;;;4.15;;
60241;SDS011;46103;52.076;113.488;2023-11-18T19:49:45;9.27;;;4.53;;
60241;SDS011;46103;52.076;113.488;2023-11-18T19:52:54;6.50;;;3.78;;
60241;SDS011;46103;52.076;113.488;2023-11-18T19:56:04;12.35;;;4.38;;
60241;SDS011;46103;52.076;113.488;2023-11-18T19:59:14;9.90;;;4.78;;
60241;SDS011;46103;52.076;113.488;2023-11-18T20:02:24;9.48;;;4.57;;
60241;SDS011;46103;52.076;113.488;2023-11-18T20:05:34;9.65;;;4.07;;
60241;SDS011;46103;52.076;113.488;2023-11-18T20:08:45;6.32;;;3.40;;
60241;SDS011;46103;52.076;113.488;2023-11-18T20:11:55;7.43;;;3.10;;
60241;SDS011;46103;52.076;113.488;2023-11-18T20:15:08;6.53;;;3.00;;
60241;SDS011;46103;52.076;113.488;2023-11-18T20:18:20;6.80;;;3.17;;
60241;SDS011;46103;52.076;113.488;2023-11-18T20:21:29;5.38;;;2.90;;
60241;SDS011;46103;52.076;113.488;2023-11-18T20:24:40;8.55;;;3.22;;
60241;SDS011;46103;52.076;113.488;2023-11-18T20:27:51;7.00;;;2.75;;
60241;SDS011;46103;52.076;113.488;2023-11-18T20:31:01;6.18;;;2.72;;
60241;SDS011;46103;52.076;113.488;2023-11-18T20:34:12;5.93;;;2.75;;
60241;SDS011;46103;52.076;113.488;2023-11-18T20:37:23;5.53;;;2.58;;
60241;SDS011;46103;52.076;113.488;2023-11-18T20:40:34;6.63;;;3.05;;
60241;SDS011;46103;52.076;113.488;2023-11-18T20:43:44;5.25;;;2.65;;
60241;SDS011;46103;52.076;113.488;2023-11-18T20:46:53;5.13;;;2.55;;
60241;SDS011;46103;52.076;113.488;2023-11-18T20:50:02;5.13;;;2.40;;
60241;SDS011;46103;52.076;113.488;2023-11-18T20:53:12;8.43;;;3.85;;
60241;SDS011;46103;52.076;113.488;2023-11-18T20:56:21;6.07;;;3.00;;
60241;SDS011;46103;52.076;113.488;2023-11-18T20:59:31;7.15;;;2.85;;
60241;SDS011;46103;52.076;113.488;2023-11-18T21:02:41;8.15;;;3.63;;
60241;SDS011;46103;52.076;113.488;2023-11-18T21:05:53;7.07;;;3.50;;
60241;SDS011;46103;52.076;113.488;2023-11-18T21:09:03;7.57;;;3.83;;
60241;SDS011;46103;52.076;113.488;2023-11-18T21:12:13;8.23;;;4.13;;
60241;SDS011;46103;52.076;113.488;2023-11-18T21:15:24;8.18;;;3.20;;
60241;SDS011;46103;52.076;113.488;2023-11-18T21:18:34;6.05;;;2.83;;
60241;SDS011;46103;52.076;113.488;2023-11-18T21:21:43;10.13;;;4.57;;
60241;SDS011;46103;52.076;113.488;2023-11-18T21:28:01;6.90;;;2.63;;
60241;SDS011;46103;52.076;113.488;2023-11-18T21:31:11;6.75;;;3.13;;
60241;SDS011;46103;52.076;113.488;2023-11-18T21:34:22;6.25;;;3.08;;
60241;SDS011;46103;52.076;113.488;2023-11-18T21:37:30;5.32;;;2.35;;
60241;SDS011;46103;52.076;113.488;2023-11-18T21:40:40;5.53;;;2.90;;
60241;SDS011;46103;52.076;113.488;2023-11-18T21:43:50;6.85;;;3.13;;
60241;SDS011;46103;52.076;113.488;2023-11-18T21:47:01;5.63;;;2.95;;
60241;SDS011;46103;52.076;113.488;2023-11-18T21:50:11;7.57;;;2.65;;
60241;SDS011;46103;52.076;113.488;2023-11-18T21:53:23;5.97;;;2.58;;
60241;SDS011;46103;52.076;113.488;2023-11-18T21:56:34;5.40;;;2.28;;
60241;SDS011;46103;52.076;113.488;2023-11-18T21:59:42;8.18;;;3.20;;
60241;SDS011;46103;52.076;113.488;2023-11-18T22:02:52;5.93;;;3.08;;
60241;SDS011;46103;52.076;113.488;2023-11-18T22:06:01;4.68;;;2.28;;
60241;SDS011;46103;52.076;113.488;2023-11-18T22:09:11;5.32;;;2.67;;
60241;SDS011;46103;52.076;113.488;2023-11-18T22:12:20;6.57;;;2.75;;
60241;SDS011;46103;52.076;113.488;2023-11-18T22:15:30;5.70;;;3.10;;
60241;SDS011;46103;52.076;113.488;2023-11-18T22:18:40;5.38;;;3.08;;
60241;SDS011;46103;52.076;113.488;2023-11-18T22:21:49;5.70;;;2.20;;